createdAt,value
2018-06-05T00:02:14.336Z,4.70
2018-06-05T00:04:41.583Z,4.00
2018-06-05T00:07:08.786Z,4.50
2018-06-05T00:09:36.077Z,4.13
2018-06-05T00:12:03.308Z,4.53
2018-06-05T00:14:30.546Z,4.53
2018-06-05T00:16:57.848Z,4.33
2018-06-05T00:19:25.080Z,4.07
2018-06-05T00:21:52.330Z,4.30
2018-06-05T00:24:19.610Z,4.83
2018-06-05T00:26:46.780Z,4.60
2018-06-05T00:29:13.959Z,4.40
2018-06-05T00:31:41.163Z,4.57
2018-06-05T00:34:08.362Z,4.43
2018-06-05T00:36:35.563Z,4.67
2018-06-05T00:39:02.741Z,4.43
2018-06-05T00:41:29.936Z,4.57
2018-06-05T00:43:57.200Z,4.53
2018-06-05T00:46:24.460Z,4.60
2018-06-05T00:48:51.711Z,4.70
2018-06-05T00:51:24.491Z,4.87
2018-06-05T00:53:51.678Z,4.50
2018-06-05T00:56:18.861Z,4.23
2018-06-05T00:58:46.084Z,4.80
2018-06-05T01:01:13.287Z,4.60
2018-06-05T01:03:40.526Z,3.80
2018-06-05T01:06:07.775Z,4.40
2018-06-05T01:08:35.044Z,4.37
2018-06-05T01:11:02.285Z,4.17
2018-06-05T01:13:29.467Z,4.17
2018-06-05T01:15:56.625Z,3.80
2018-06-05T01:18:23.837Z,4.20
2018-06-05T01:20:51.126Z,4.10
2018-06-05T01:23:18.314Z,4.33
2018-06-05T01:25:45.503Z,3.80
2018-06-05T01:28:12.656Z,4.10
2018-06-05T01:30:39.897Z,4.10
2018-06-05T01:33:07.047Z,3.97
2018-06-05T01:35:34.215Z,3.80
2018-06-05T01:38:01.457Z,4.13
2018-06-05T01:40:28.645Z,4.03
2018-06-05T01:42:55.829Z,3.90
2018-06-05T01:45:23.027Z,3.83
2018-06-05T01:47:50.243Z,3.47
2018-06-05T01:50:17.425Z,3.43
2018-06-05T01:52:45.609Z,3.60
2018-06-05T01:55:12.795Z,3.30
2018-06-05T01:57:40.064Z,3.20
2018-06-05T02:00:07.352Z,2.93
2018-06-05T02:02:34.565Z,3.40
2018-06-05T02:05:01.762Z,2.83
2018-06-05T02:07:28.970Z,3.57
2018-06-05T02:09:56.281Z,3.17
2018-06-05T02:12:23.460Z,3.20
2018-06-05T02:14:50.649Z,2.90
2018-06-05T02:17:17.890Z,3.10
2018-06-05T02:19:45.118Z,3.20
2018-06-05T02:22:12.396Z,3.40
2018-06-05T02:24:39.563Z,2.87
2018-06-05T02:27:06.764Z,2.90
2018-06-05T02:29:33.951Z,2.67
2018-06-05T02:32:01.135Z,3.00
2018-06-05T02:34:28.336Z,2.53
2018-06-05T02:36:55.534Z,2.60
2018-06-05T02:39:22.727Z,2.90
2018-06-05T02:41:49.897Z,2.70
2018-06-05T02:44:17.071Z,2.23
2018-06-05T02:46:44.307Z,2.30
2018-06-05T02:49:11.499Z,2.53
2018-06-05T02:51:38.680Z,2.60
2018-06-05T02:54:06.042Z,2.60
2018-06-05T02:56:33.278Z,2.17
2018-06-05T02:59:00.452Z,2.30
2018-06-05T03:01:27.645Z,1.90
2018-06-05T03:03:54.831Z,2.00
2018-06-05T03:06:22.024Z,2.20
2018-06-05T03:08:49.366Z,1.77
2018-06-05T03:11:16.537Z,1.70
2018-06-05T03:13:43.715Z,1.90
2018-06-05T03:16:10.886Z,1.83
2018-06-05T03:18:38.160Z,2.00
2018-06-05T03:21:05.367Z,1.67
2018-06-05T03:23:32.593Z,1.93
2018-06-05T03:25:59.741Z,1.67
2018-06-05T03:28:26.919Z,1.63
2018-06-05T03:30:54.185Z,2.07
2018-06-05T03:33:21.375Z,2.03
2018-06-05T03:35:48.566Z,1.67
2018-06-05T03:38:15.761Z,1.73
2018-06-05T03:40:43.050Z,1.40
2018-06-05T03:43:10.281Z,1.93
2018-06-05T03:45:37.550Z,1.87
2018-06-05T03:48:04.754Z,1.70
2018-06-05T03:50:31.939Z,1.73
2018-06-05T03:52:59.117Z,1.73
2018-06-05T03:55:26.307Z,1.93
2018-06-05T03:57:53.569Z,1.97
2018-06-05T04:00:20.909Z,1.70
2018-06-05T04:02:48.079Z,2.00
2018-06-05T04:05:15.391Z,1.90
2018-06-05T04:07:42.647Z,1.60
2018-06-05T04:10:09.827Z,2.17
2018-06-05T04:12:37.082Z,1.70
2018-06-05T04:15:04.377Z,1.80
2018-06-05T04:17:31.639Z,1.70
2018-06-05T04:19:58.827Z,1.53
2018-06-05T04:22:26.108Z,1.70
2018-06-05T04:24:53.329Z,2.20
2018-06-05T04:27:20.616Z,1.60
2018-06-05T04:29:47.805Z,2.07
2018-06-05T04:32:15.080Z,1.73
2018-06-05T04:34:42.368Z,1.90
2018-06-05T04:37:09.620Z,1.60
2018-06-05T04:39:36.787Z,1.70
2018-06-05T04:42:04.164Z,1.83
2018-06-05T04:44:31.376Z,1.73
2018-06-05T04:46:58.611Z,1.80
2018-06-05T04:49:25.777Z,1.97
2018-06-05T04:51:52.992Z,1.70
2018-06-05T04:54:20.186Z,2.17
2018-06-05T04:56:47.353Z,2.23
2018-06-05T04:59:14.523Z,2.33
2018-06-05T05:01:41.712Z,2.30
2018-06-05T05:04:08.960Z,2.23
2018-06-05T05:06:36.169Z,2.17
2018-06-05T05:09:04.573Z,2.20
2018-06-05T05:11:31.802Z,2.03
2018-06-05T05:13:59.006Z,2.00
2018-06-05T05:16:26.194Z,1.73
2018-06-05T05:18:53.371Z,1.77
2018-06-05T05:21:20.540Z,1.70
2018-06-05T05:23:47.797Z,1.90
2018-06-05T05:26:14.991Z,1.73
2018-06-05T05:28:42.177Z,1.63
2018-06-05T05:31:09.418Z,1.87
2018-06-05T05:33:36.607Z,1.60
2018-06-05T05:36:03.865Z,1.73
2018-06-05T05:38:31.116Z,2.07
2018-06-05T05:40:58.312Z,1.90
2018-06-05T05:43:25.519Z,1.80
2018-06-05T05:45:52.700Z,1.77
2018-06-05T05:48:19.909Z,1.60
2018-06-05T05:50:47.151Z,1.60
2018-06-05T05:53:14.364Z,1.60
2018-06-05T05:55:41.788Z,2.07
2018-06-05T05:58:08.981Z,1.97
2018-06-05T06:00:36.191Z,1.87
2018-06-05T06:03:03.391Z,2.27
2018-06-05T06:05:30.588Z,2.00
2018-06-05T06:07:57.771Z,1.97
2018-06-05T06:10:24.997Z,1.80
2018-06-05T06:12:52.214Z,1.97
2018-06-05T06:15:19.502Z,1.87
2018-06-05T06:17:46.663Z,1.50
2018-06-05T06:20:13.845Z,1.83
2018-06-05T06:22:41.073Z,1.87
2018-06-05T06:25:08.243Z,1.60
2018-06-05T06:27:35.460Z,1.53
2018-06-05T06:30:02.646Z,1.90
2018-06-05T06:32:29.816Z,1.73
2018-06-05T06:34:57.030Z,2.30
2018-06-05T06:37:24.224Z,1.80
2018-06-05T06:39:52.415Z,1.90
2018-06-05T06:42:19.668Z,1.97
2018-06-05T06:44:46.848Z,2.07
2018-06-05T06:47:14.048Z,2.13
2018-06-05T06:49:41.232Z,1.90
2018-06-05T06:52:08.466Z,2.20
2018-06-05T06:54:35.671Z,1.77
2018-06-05T06:57:02.972Z,2.00
2018-06-05T06:59:30.168Z,1.73
2018-06-05T07:01:57.372Z,1.70
2018-06-05T07:04:24.548Z,2.20
2018-06-05T07:06:51.740Z,1.90
2018-06-05T07:09:19.024Z,1.97
2018-06-05T07:11:46.279Z,2.10
2018-06-05T07:14:13.484Z,1.90
2018-06-05T07:16:40.674Z,1.80
2018-06-05T07:19:07.898Z,2.00
2018-06-05T07:21:35.090Z,1.80
2018-06-05T07:24:02.347Z,1.83
2018-06-05T07:26:29.565Z,2.30
2018-06-05T07:28:56.837Z,1.93
2018-06-05T07:31:24.052Z,1.90
2018-06-05T07:33:51.273Z,1.90
2018-06-05T07:36:18.520Z,1.80
2018-06-05T07:38:45.791Z,2.07
2018-06-05T07:41:12.957Z,1.70
2018-06-05T07:43:40.176Z,1.87
2018-06-05T07:46:07.396Z,2.03
2018-06-05T07:48:34.574Z,2.47
2018-06-05T07:51:01.803Z,1.90
2018-06-05T07:53:29.056Z,2.00
2018-06-05T07:55:56.304Z,1.87
2018-06-05T07:58:23.555Z,1.90
2018-06-05T08:00:50.770Z,1.70
2018-06-05T08:03:18.062Z,1.80
2018-06-05T08:05:45.296Z,1.70
2018-06-05T08:08:12.494Z,2.10
2018-06-05T08:10:39.696Z,1.67
2018-06-05T08:13:06.911Z,2.00
2018-06-05T08:15:34.120Z,2.00
2018-06-05T08:18:01.370Z,1.90
2018-06-05T08:20:28.596Z,1.77
2018-06-05T08:22:56.472Z,1.73
2018-06-05T08:25:23.704Z,1.87
2018-06-05T08:27:50.918Z,1.80
2018-06-05T08:30:18.102Z,1.90
2018-06-05T08:32:45.357Z,2.10
2018-06-05T08:35:12.548Z,1.90
2018-06-05T08:37:39.761Z,1.90
2018-06-05T08:40:06.966Z,1.90
2018-06-05T08:42:34.157Z,1.97
2018-06-05T08:45:01.380Z,2.10
2018-06-05T08:47:28.563Z,1.60
2018-06-05T08:49:55.732Z,2.20
2018-06-05T08:52:22.954Z,1.70
2018-06-05T08:54:50.232Z,1.50
2018-06-05T08:57:17.419Z,2.20
2018-06-05T08:59:44.640Z,1.97
2018-06-05T09:02:11.856Z,1.47
2018-06-05T09:04:39.073Z,8.67
2018-06-05T09:07:06.267Z,34.60
2018-06-05T09:09:33.468Z,43.23
2018-06-05T09:12:00.696Z,35.30
2018-06-05T09:14:27.939Z,28.83
2018-06-05T09:16:55.194Z,26.87
2018-06-05T09:19:22.449Z,24.13
2018-06-05T09:21:49.716Z,17.03
2018-06-05T09:24:16.904Z,13.20
2018-06-05T09:26:44.200Z,10.47
2018-06-05T09:29:11.484Z,8.10
2018-06-05T09:31:38.716Z,7.03
2018-06-05T09:34:05.937Z,6.07
2018-06-05T09:36:33.199Z,4.73
2018-06-05T09:39:00.424Z,4.83
2018-06-05T09:41:27.648Z,4.90
2018-06-05T09:43:54.967Z,4.20
2018-06-05T09:46:22.188Z,4.03
2018-06-05T09:48:49.398Z,3.73
2018-06-05T09:51:16.588Z,3.30
2018-06-05T09:53:43.780Z,2.60
2018-06-05T09:56:11.009Z,2.87
2018-06-05T09:58:38.343Z,2.90
2018-06-05T10:01:05.602Z,2.47
2018-06-05T10:03:32.773Z,2.60
2018-06-05T10:05:59.973Z,2.40
2018-06-05T10:08:27.158Z,2.50
2018-06-05T10:10:54.329Z,2.20
2018-06-05T10:13:21.548Z,2.50
2018-06-05T10:15:48.834Z,2.27
2018-06-05T10:18:16.010Z,2.00
2018-06-05T10:20:43.214Z,2.17
2018-06-05T10:23:10.386Z,2.20
2018-06-05T10:25:37.632Z,2.30
2018-06-05T10:28:04.858Z,1.87
2018-06-05T10:30:32.128Z,2.00
2018-06-05T10:32:59.330Z,1.90
2018-06-05T10:35:26.530Z,2.30
2018-06-05T10:37:53.734Z,2.00
2018-06-05T10:40:20.962Z,2.20
2018-06-05T10:42:48.183Z,2.13
2018-06-05T10:45:15.374Z,2.00
2018-06-05T10:47:42.624Z,1.80
2018-06-05T10:50:09.839Z,2.03
2018-06-05T10:52:37.137Z,2.03
2018-06-05T10:55:04.392Z,2.03
2018-06-05T10:57:31.570Z,2.23
2018-06-05T10:59:58.836Z,2.10
2018-06-05T11:02:26.030Z,2.20
2018-06-05T11:04:53.252Z,2.00
2018-06-05T11:07:20.408Z,2.00
2018-06-05T11:09:47.674Z,2.20
2018-06-05T11:12:14.833Z,2.20
2018-06-05T11:14:42.056Z,2.10
2018-06-05T11:17:09.240Z,2.00
2018-06-05T11:19:36.580Z,1.93
2018-06-05T11:22:03.814Z,2.20
2018-06-05T11:24:31.064Z,1.93
2018-06-05T11:26:58.318Z,1.77
2018-06-05T11:29:25.524Z,1.73
2018-06-05T11:31:52.856Z,1.77
2018-06-05T11:34:20.052Z,2.40
2018-06-05T11:36:47.263Z,2.07
2018-06-05T11:39:14.466Z,1.53
2018-06-05T11:41:41.973Z,1.80
2018-06-05T11:44:09.184Z,1.83
2018-06-05T11:46:36.433Z,1.60
2018-06-05T11:49:03.736Z,1.90
2018-06-05T11:51:31.043Z,2.00
2018-06-05T11:53:58.355Z,1.83
2018-06-05T11:56:25.572Z,1.63
2018-06-05T11:58:53.070Z,1.70
2018-06-05T12:01:20.242Z,1.90
2018-06-05T12:03:47.510Z,1.47
2018-06-05T12:06:14.775Z,1.90
2018-06-05T12:08:41.990Z,1.80
2018-06-05T12:11:09.285Z,1.77
2018-06-05T12:13:36.580Z,1.70
2018-06-05T12:16:03.748Z,1.93
2018-06-05T12:18:30.952Z,1.97
2018-06-05T12:20:58.184Z,2.03
2018-06-05T12:23:25.407Z,1.63
2018-06-05T12:25:52.608Z,1.60
2018-06-05T12:28:19.784Z,1.70
2018-06-05T12:30:47.036Z,1.53
2018-06-05T12:33:14.235Z,1.50
2018-06-05T12:35:41.447Z,1.63
2018-06-05T12:38:08.738Z,1.77
2018-06-05T12:40:35.932Z,1.87
2018-06-05T12:43:03.227Z,1.63
2018-06-05T12:45:30.443Z,1.83
2018-06-05T12:47:57.645Z,1.73
2018-06-05T12:50:24.855Z,1.57
2018-06-05T12:52:52.047Z,1.33
2018-06-05T12:55:19.275Z,2.03
2018-06-05T12:57:46.515Z,1.90
2018-06-05T13:00:13.740Z,1.77
2018-06-05T13:02:40.957Z,2.00
2018-06-05T13:05:08.187Z,1.90
2018-06-05T13:07:35.438Z,1.80
2018-06-05T13:10:02.637Z,1.80
2018-06-05T13:12:29.869Z,1.80
2018-06-05T13:14:57.049Z,1.60
2018-06-05T13:17:24.342Z,1.67
2018-06-05T13:19:51.522Z,1.57
2018-06-05T13:22:18.727Z,1.73
2018-06-05T13:24:45.965Z,1.70
2018-06-05T13:27:13.263Z,1.87
2018-06-05T13:29:40.509Z,1.67
2018-06-05T13:32:07.719Z,1.53
2018-06-05T13:34:34.931Z,1.60
2018-06-05T13:37:02.240Z,1.47
2018-06-05T13:39:29.435Z,1.73
2018-06-05T13:41:56.630Z,1.50
2018-06-05T13:44:23.835Z,1.53
2018-06-05T13:46:51.051Z,1.40
2018-06-05T13:49:18.353Z,1.77
2018-06-05T13:51:45.583Z,1.73
2018-06-05T13:54:12.786Z,1.60
2018-06-05T13:56:40.070Z,1.60
2018-06-05T13:59:07.322Z,1.70
2018-06-05T14:01:34.555Z,1.70
2018-06-05T14:04:01.776Z,1.57
2018-06-05T14:06:29.058Z,1.53
2018-06-05T14:08:56.241Z,1.77
2018-06-05T14:11:23.436Z,1.73
2018-06-05T14:13:50.647Z,2.30
2018-06-05T14:16:17.857Z,1.90
2018-06-05T14:18:45.066Z,1.63
2018-06-05T14:21:12.382Z,1.77
2018-06-05T14:23:39.844Z,1.90
2018-06-05T14:26:07.078Z,2.07
2018-06-05T14:28:34.329Z,1.80
2018-06-05T14:31:01.590Z,2.20
2018-06-05T14:33:28.827Z,2.30
2018-06-05T14:35:56.097Z,2.40
2018-06-05T14:38:23.322Z,2.00
2018-06-05T14:40:50.532Z,1.80
2018-06-05T14:43:17.838Z,1.93
2018-06-05T14:45:45.051Z,2.03
2018-06-05T14:48:12.244Z,2.00
2018-06-05T14:50:39.503Z,1.83
2018-06-05T14:53:06.855Z,1.30
2018-06-05T14:55:34.232Z,1.80
2018-06-05T14:58:01.564Z,1.50
2018-06-05T15:00:28.758Z,1.37
2018-06-05T15:02:55.951Z,1.53
2018-06-05T15:05:23.170Z,1.70
2018-06-05T15:07:50.380Z,1.70
2018-06-05T15:10:17.613Z,1.57
2018-06-05T15:12:44.884Z,1.83
2018-06-05T15:15:12.120Z,1.83
2018-06-05T15:17:39.380Z,1.83
2018-06-05T15:20:06.628Z,1.53
2018-06-05T15:22:33.832Z,1.50
2018-06-05T15:25:01.040Z,1.37
2018-06-05T15:27:28.330Z,1.73
2018-06-05T15:29:55.540Z,6.45
2018-06-05T15:32:22.764Z,6.90
2018-06-05T15:34:50.121Z,9.57
2018-06-05T15:37:17.366Z,57.43
2018-06-05T15:39:44.652Z,41.00
2018-06-05T15:42:11.876Z,30.87
2018-06-05T15:44:39.154Z,23.27
2018-06-05T15:47:06.364Z,18.83
2018-06-05T15:49:33.658Z,16.40
2018-06-05T15:52:00.914Z,12.20
2018-06-05T15:54:28.148Z,9.43
2018-06-05T15:56:55.330Z,7.40
2018-06-05T15:59:22.550Z,6.03
2018-06-05T16:01:49.753Z,4.83
2018-06-05T16:04:16.963Z,4.10
2018-06-05T16:06:44.126Z,3.10
2018-06-05T16:09:11.351Z,2.90
2018-06-05T16:11:38.710Z,2.80
2018-06-05T16:14:06.160Z,2.87
2018-06-05T16:16:33.418Z,2.63
2018-06-05T16:19:00.608Z,2.30
2018-06-05T16:21:27.928Z,2.93
2018-06-05T16:23:55.177Z,2.17
2018-06-05T16:26:22.381Z,2.03
2018-06-05T16:28:49.690Z,2.90
2018-06-05T16:31:16.888Z,2.37
2018-06-05T16:33:44.384Z,1.90
2018-06-05T16:36:11.643Z,1.80
2018-06-05T16:38:38.976Z,1.47
2018-06-05T16:41:06.176Z,1.80
2018-06-05T16:43:33.424Z,1.90
2018-06-05T16:46:00.627Z,1.80
2018-06-05T16:48:27.800Z,2.00
2018-06-05T16:50:55.003Z,2.10
2018-06-05T16:53:22.193Z,2.00
2018-06-05T16:55:49.415Z,2.00
2018-06-05T16:58:16.629Z,2.13
2018-06-05T17:00:43.944Z,2.20
2018-06-05T17:03:11.147Z,2.00
2018-06-05T17:05:38.361Z,1.90
2018-06-05T17:08:05.579Z,2.20
2018-06-05T17:10:32.799Z,2.07
2018-06-05T17:13:00.014Z,2.20
2018-06-05T17:15:27.272Z,2.50
2018-06-05T17:17:54.535Z,2.30
2018-06-05T17:20:21.805Z,1.70
2018-06-05T17:22:49.029Z,2.40
2018-06-05T17:25:16.251Z,1.93
2018-06-05T17:27:43.469Z,1.90
2018-06-05T17:30:10.673Z,2.10
2018-06-05T17:32:37.908Z,2.27
2018-06-05T17:35:05.110Z,2.27
2018-06-05T17:37:32.341Z,2.20
2018-06-05T17:39:59.585Z,2.07
2018-06-05T17:42:26.793Z,2.00
2018-06-05T17:44:54.066Z,1.83
2018-06-05T17:47:21.359Z,2.37
2018-06-05T17:49:48.589Z,2.03
2018-06-05T17:52:15.847Z,2.60
2018-06-05T17:54:43.047Z,2.00
2018-06-05T17:57:10.341Z,1.70
2018-06-05T17:59:37.555Z,2.73
2018-06-05T18:02:04.835Z,2.50
2018-06-05T18:04:32.153Z,2.07
2018-06-05T18:06:59.459Z,2.00
2018-06-05T18:09:26.649Z,2.27
2018-06-05T18:11:53.855Z,2.00
2018-06-05T18:14:21.057Z,2.27
2018-06-05T18:16:48.345Z,2.47
2018-06-05T18:19:15.548Z,1.80
2018-06-05T18:21:42.753Z,2.37
2018-06-05T18:24:10.314Z,1.90
2018-06-05T18:26:37.587Z,2.23
2018-06-05T18:29:04.784Z,2.20
2018-06-05T18:31:31.987Z,2.00
2018-06-05T18:33:59.342Z,2.10
2018-06-05T18:36:26.571Z,2.43
2018-06-05T18:38:53.827Z,1.97
2018-06-05T18:41:21.060Z,2.27
2018-06-05T18:43:48.332Z,2.10
2018-06-05T18:46:15.533Z,2.40
2018-06-05T18:48:42.775Z,2.40
2018-06-05T18:51:09.967Z,2.53
2018-06-05T18:53:37.182Z,2.07
2018-06-05T18:56:04.397Z,2.17
2018-06-05T18:58:31.573Z,1.90
2018-06-05T19:00:58.762Z,2.07
2018-06-05T19:03:25.977Z,2.13
2018-06-05T19:05:53.198Z,2.00
2018-06-05T19:08:20.399Z,2.17
2018-06-05T19:10:47.697Z,2.40
2018-06-05T19:13:14.943Z,2.20
2018-06-05T19:15:42.157Z,2.33
2018-06-05T19:18:09.458Z,2.43
2018-06-05T19:20:36.706Z,2.22
2018-06-05T19:23:04.011Z,2.12
2018-06-05T19:25:31.401Z,1.90
2018-06-05T19:27:58.649Z,2.10
2018-06-05T19:30:25.933Z,1.83
2018-06-05T19:32:53.209Z,2.10
2018-06-05T19:35:20.464Z,2.13
2018-06-05T19:37:47.823Z,2.20
2018-06-05T19:40:15.125Z,2.37
2018-06-05T19:42:42.373Z,2.23
2018-06-05T19:45:09.631Z,2.13
2018-06-05T19:47:36.866Z,2.43
2018-06-05T19:50:04.100Z,2.23
2018-06-05T19:52:31.324Z,1.77
2018-06-05T19:54:58.605Z,2.17
2018-06-05T19:57:25.886Z,2.23
2018-06-05T19:59:53.098Z,1.90
2018-06-05T20:02:20.383Z,1.77
2018-06-05T20:04:48.079Z,2.37
2018-06-05T20:07:15.281Z,2.00
2018-06-05T20:09:42.564Z,2.20
2018-06-05T20:12:09.794Z,2.40
2018-06-05T20:14:37.076Z,2.23
2018-06-05T20:17:04.519Z,2.33
2018-06-05T20:19:31.752Z,2.30
2018-06-05T20:21:59.292Z,1.97
2018-06-05T20:24:26.499Z,2.60
2018-06-05T20:26:53.915Z,2.30
2018-06-05T20:29:21.189Z,2.40
2018-06-05T20:31:49.298Z,2.47
2018-06-05T20:34:16.525Z,2.17
2018-06-05T20:36:43.707Z,2.50
2018-06-05T20:39:11.038Z,2.30
2018-06-05T20:41:38.251Z,2.43
2018-06-05T20:44:05.458Z,2.10
2018-06-05T20:46:32.667Z,2.47
2018-06-05T20:48:59.845Z,2.17
2018-06-05T20:51:27.053Z,2.60
2018-06-05T20:53:54.273Z,2.20
2018-06-05T20:56:21.557Z,1.90
2018-06-05T20:58:48.740Z,2.33
2018-06-05T21:01:15.930Z,2.47
2018-06-05T21:03:43.107Z,2.20
2018-06-05T21:06:10.313Z,2.50
2018-06-05T21:08:37.617Z,2.10
2018-06-05T21:11:04.858Z,1.57
2018-06-05T21:13:32.392Z,2.10
2018-06-05T21:15:59.624Z,1.93
2018-06-05T21:18:26.815Z,2.10
2018-06-05T21:20:54.066Z,1.90
2018-06-05T21:23:21.343Z,1.87
2018-06-05T21:25:48.589Z,2.00
2018-06-05T21:28:15.841Z,1.70
2018-06-05T21:30:43.091Z,2.23
2018-06-05T21:33:10.335Z,2.13
2018-06-05T21:35:37.525Z,2.00
2018-06-05T21:38:04.713Z,1.90
2018-06-05T21:40:31.912Z,2.07
2018-06-05T21:42:59.145Z,1.90
2018-06-05T21:45:26.350Z,2.13
2018-06-05T21:47:53.661Z,2.30
2018-06-05T21:50:20.914Z,2.30
2018-06-05T21:52:48.762Z,1.67
2018-06-05T21:55:16.063Z,1.97
2018-06-05T21:57:43.244Z,1.90
2018-06-05T22:00:10.509Z,2.03
2018-06-05T22:02:37.770Z,2.00
2018-06-05T22:05:05.029Z,2.03
2018-06-05T22:07:32.261Z,1.93
2018-06-05T22:09:59.528Z,1.73
2018-06-05T22:12:26.782Z,2.20
2018-06-05T22:14:54.059Z,2.00
2018-06-05T22:17:21.277Z,1.90
2018-06-05T22:19:48.530Z,2.20
2018-06-05T22:22:15.795Z,1.80
2018-06-05T22:24:43.026Z,2.00
2018-06-05T22:27:10.290Z,2.17
2018-06-05T22:29:37.499Z,2.60
2018-06-05T22:32:04.806Z,1.90
2018-06-05T22:34:32.037Z,1.90
2018-06-05T22:36:59.316Z,2.03
2018-06-05T22:39:26.519Z,2.20
2018-06-05T22:41:53.794Z,1.80
2018-06-05T22:44:21.042Z,1.80
2018-06-05T22:46:48.307Z,1.97
2018-06-05T22:49:15.573Z,1.90
2018-06-05T22:51:42.741Z,1.80
2018-06-05T22:54:10.066Z,2.10
2018-06-05T22:56:37.306Z,1.70
2018-06-05T22:59:04.562Z,2.13
2018-06-05T23:01:31.835Z,2.30
2018-06-05T23:03:59.061Z,2.20
2018-06-05T23:06:26.327Z,1.87
2018-06-05T23:08:53.580Z,2.00
2018-06-05T23:11:20.827Z,2.30
2018-06-05T23:13:48.055Z,2.10
2018-06-05T23:16:15.332Z,2.07
2018-06-05T23:18:42.561Z,1.80
2018-06-05T23:21:09.813Z,2.60
2018-06-05T23:23:37.069Z,1.93
2018-06-05T23:26:04.334Z,1.77
2018-06-05T23:28:31.591Z,2.00
2018-06-05T23:30:58.768Z,1.90
2018-06-05T23:33:25.938Z,1.90
2018-06-05T23:35:53.153Z,2.33
2018-06-05T23:38:20.344Z,1.97
2018-06-05T23:40:47.627Z,2.20
2018-06-05T23:43:14.883Z,2.10
2018-06-05T23:45:42.095Z,2.13
2018-06-05T23:48:09.624Z,2.27
2018-06-05T23:50:36.855Z,1.87
2018-06-05T23:53:04.059Z,2.10
2018-06-05T23:55:31.375Z,1.90
2018-06-05T23:57:58.601Z,2.10
